Aeroporto :
LOGIN :

Iscrizione | Disclaimer

   EN    FR    IT 

 










Sommario :    VFR   VFR Marginale   IFR   IFR Intensivo   IFR Molto Intensivo
Visibilità : 
Base nubi : 
>= 8 km
>= 3000ft
5 / 8 km
1000 / 3000 ft
1500m / 5 km
500 / 1000 ft
800 / 1500m
200 / 500 ft
< 800m
< 200 ft
Simboli :   Temporali  Nebbia  Neve Forte  Precipitazioni Forti  Vento > 20 kt
SIGMETs :   Varie  Temporali  Ghiacco  Turbolenza  Onda orograficha  Ceneri Vulcaniche






- Altitudine del aeroporto : 129 ft
- Codice IATA : ZCN


ETHC - Celle

ULTIMO METAR :
  • 140420Z 26004KT 9999 FEW020 SCT044 15/11 Q1013 BLU+BLU+ TEMPO BLU

METARs OBSOLETI :
  • 140320Z 26008KT 9999 FEW020 BKN042 16/11 Q1013 BLU
  • 140220Z 25010KT 9999 SCT040 BKN200 17/14 Q1012 BLU+

TAF TAF ETHC
Valido dal 14 a 05 ore il 14 a 14 ore UTC


140417Z 1405/1414 25005KT 9999 NSW FEW020 SCT040 BKN100
BECMG 1410/1412 07005KT 9999 NSW SCT030 SCT090



MetMap, La meteo Aeronautica in un colpo d'occhio ! - Copyright ORBIFLY Dicembre 2007 - Disclaimer

ORBIFLY MET'MAP TEAM :

Programmazione e sviluppo : Alexandra Zaïnal
Concezione e sviluppo : Baudouin d'Aumeries
Co-Programmazione e sviluppo : Marc-Olivier Méhu
Supporto tecnico e logistico : Manuel Goepfert
Aiuto per la traduzione : Arnaldo La Scala

Contatto : metmap@orbifly.com




FONTI E CREDITI :

   NOAA